tititudorancea.com
Station Historical Data
Daily Summary for April 24, 2018 Units:  Metric    English   Both
« Previous Day
Next Day »
Daily Weekly Monthly Yearly Custom
  High: Low: Average:
Temperature: -17.8 °C 13.4 °C 18.9 °C
Dew Point: -17.8 °C 5.7 °C 10.2 °C
Humidity: Humidity % 40 % 59 %
Wind Speed: 0 km/h 0 km/h 5 km/h
Wind Gust: 0 km/h - -
Wind:- - South
Pressure: 0 hPa 1012.1 hPa -
Precipitation: 0 mm    
Historical Graphs
 
 
Ararat weather Find more about Weather in Ararat, AU


 



 


Tabular Data for April 24, 2018
Time Temperature Dew Point Pressure Wind Wind Speed Wind Gust Humidity Rainfall Rate (Hourly)
-17.8 °C -17.8 °C 0 hPa Calm     Humidity % 0 mm
00:04 19.7 °C 5.7 °C 1012.8 hPa NNE 3.5 km/h 5.6 km/h 40 % 0 mm
00:09 19.6 °C 6 °C 1012.8 hPa NNE 4.2 km/h 5.6 km/h 41 % 0 mm
00:14 19.5 °C 5.9 °C 1012.8 hPa NNE 1.8 km/h 3.7 km/h 41 % 0 mm
00:19 19.3 °C 5.7 °C 1012.8 hPa NNE 4.3 km/h 5.6 km/h 41 % 0 mm
00:24 19.2 °C 5.9 °C 1012.8 hPa NNE 4.5 km/h 5.6 km/h 42 % 0 mm
00:29 19.1 °C 5.9 °C 1012.8 hPa NNE 4.3 km/h 5.6 km/h 42 % 0 mm
00:34 18.9 °C 6.1 °C 1012.8 hPa NNE 3.1 km/h 5.6 km/h 43 % 0 mm
00:39 18.9 °C 6.1 °C 1012.8 hPa NNE 3.9 km/h 7.4 km/h 43 % 0 mm
00:44 18.9 °C 6.1 °C 1012.8 hPa NNE 3.2 km/h 5.6 km/h 43 % 0 mm
00:49 18.9 °C 6.1 °C 1012.8 hPa NNE 3.1 km/h 5.6 km/h 43 % 0 mm
00:54 19 °C 6.1 °C 1012.8 hPa NNE 5.1 km/h 5.6 km/h 43 % 0 mm
00:59 19 °C 6.1 °C 1012.8 hPa NNE 3.1 km/h 6.4 km/h 43 % 0 mm
01:04 18.9 °C 6.1 °C 1012.8 hPa NNE 2.3 km/h 5.6 km/h 43 % 0 mm
01:09 18.9 °C 6.1 °C 1012.8 hPa NNE 4 km/h 5.6 km/h 43 % 0 mm
01:14 18.9 °C 6.1 °C 1012.8 hPa NNE 3.9 km/h 5.6 km/h 43 % 0 mm
01:19 18.9 °C 6.1 °C 1012.8 hPa NNE 6.6 km/h 9.3 km/h 43 % 0 mm
01:24 18.9 °C 6.1 °C 1012.8 hPa NNE 1 km/h 5.6 km/h 43 % 0 mm
01:29 18.9 °C 6.1 °C 1012.8 hPa NNE 4.3 km/h 7.4 km/h 43 % 0 mm
01:34 18.8 °C 5.9 °C 1012.8 hPa NNE 4.8 km/h 7.4 km/h 43 % 0 mm
01:39 18.7 °C 5.9 °C 1012.8 hPa NNE 6.1 km/h 7.4 km/h 43 % 0 mm
01:44 18.6 °C 6.1 °C 1012.4 hPa NNE 4.5 km/h 7.4 km/h 44 % 0 mm
01:49 18.3 °C 6.2 °C 1012.4 hPa NNE 3.5 km/h 5.6 km/h 45 % 0 mm
01:54 18.1 °C 6 °C 1012.8 hPa NNE 1.8 km/h 5.6 km/h 45 % 0 mm
01:59 17.9 °C 5.8 °C 1012.8 hPa NNE 2.7 km/h 5.6 km/h 45 % 0 mm
02:04 17.8 °C 6 °C 1012.8 hPa NNE 3.2 km/h 7.4 km/h 46 % 0 mm
02:09 17.7 °C 5.9 °C 1012.4 hPa NNE 5 km/h 7.4 km/h 46 % 0 mm
02:14 17.7 °C 5.9 °C 1012.4 hPa NNE 6 km/h 6 km/h 46 % 0 mm
02:19 17.4 °C 6 °C 1012.4 hPa NNE 4 km/h 5.6 km/h 47 % 0 mm
02:24 17.2 °C 6.1 °C 1012.4 hPa NNE 3.9 km/h 5.6 km/h 48 % 0 mm
02:29 16.9 °C 5.8 °C 1012.4 hPa NNE 4.2 km/h 5.6 km/h 48 % 0 mm
02:34 16.7 °C 5.9 °C 1012.1 hPa NNE 2.4 km/h 5.6 km/h 49 % 0 mm
02:39 16.3 °C 6.1 °C 1012.4 hPa NNE 2.9 km/h 5.6 km/h 51 % 0 mm
02:44 15.9 °C 5.8 °C 1012.4 hPa NNE 0.8 km/h 3.7 km/h 51 % 0 mm
02:49 15.7 °C 6.1 °C 1012.1 hPa NNE 2.3 km/h 3.7 km/h 53 % 0 mm
02:54 15.4 °C 5.8 °C 1012.1 hPa NNE 2.4 km/h 5.6 km/h 53 % 0 mm
02:55 15.3 °C 6 °C 1012.1 hPa NNE 2.4 km/h 3.7 km/h 54 % 0 mm
03:00 15.2 °C 5.9 °C 1012.1 hPa NNE 2.9 km/h 5.6 km/h 54 % 0 mm
03:05 15.3 °C 6.1 °C 1012.1 hPa NNE 1.9 km/h 3.7 km/h 54 % 0 mm
03:10 15.4 °C 5.9 °C 1012.1 hPa NNE 3.9 km/h 5.6 km/h 53 % 0 mm
03:13 15.5 °C 5.9 °C 1012.1 hPa NNE 3.5 km/h 5.6 km/h 53 % 0 mm
03:18 15.7 °C 6.1 °C 1012.1 hPa NNE 2.7 km/h 5.6 km/h 53 % 0 mm
03:23 15.7 °C 6.2 °C 1012.1 hPa NNE 5.6 km/h 7.4 km/h 53 % 0 mm
03:28 15.7 °C 6.2 °C 1012.1 hPa NNE 4 km/h 5.6 km/h 53 % 0 mm
03:33 15.6 °C 6.1 °C 1012.1 hPa NNE 1.9 km/h 3.7 km/h 53 % 0 mm
03:38 15.4 °C 6.1 °C 1012.1 hPa Calm     54 % 0 mm
03:43 15.3 °C 6 °C 1012.1 hPa NNE 1.4 km/h 1.9 km/h 54 % 0 mm
03:48 15.2 °C 5.9 °C 1012.1 hPa NNE 0.3 km/h 1.9 km/h 54 % 0 mm
03:53 15.1 °C 6.1 °C 1012.4 hPa NNE 0.2 km/h   55 % 0 mm
03:58 14.8 °C 6.1 °C 1012.4 hPa Calm     56 % 0 mm
04:03 14.6 °C 6.4 °C 1012.4 hPa NNE 2.9 km/h 5.6 km/h 58 % 0 mm
04:08 14.6 °C 6.4 °C 1012.1 hPa NNE 2.3 km/h 3.7 km/h 58 % 0 mm
07:47 17.3 °C 6.8 °C 1013.4 hPa NNE 5.1 km/h 7.4 km/h 50 % 0 mm
07:52 17.4 °C 6.6 °C 1013.4 hPa NNE 3.7 km/h 5.6 km/h 49 % 0 mm
07:57 17.5 °C 6.7 °C 1013.8 hPa NNE 3.4 km/h 5.6 km/h 49 % 0 mm
08:02 17.5 °C 6.7 °C 1013.8 hPa NNE 2.9 km/h 5.6 km/h 49 % 0 mm
08:03 17.5 °C 6.7 °C 1013.8 hPa NNE 2.3 km/h 4.8 km/h 49 % 0 mm
08:08 17.6 °C 6.7 °C 1013.8 hPa NNE 5.3 km/h 5.6 km/h 49 % 0 mm
08:13 17.6 °C 6.7 °C 1013.8 hPa NNE 3.7 km/h 6.4 km/h 49 % 0 mm
08:18 17.6 °C 7 °C 1013.8 hPa NNE 3.7 km/h 5.6 km/h 50 % 0 mm
08:23 17.5 °C 6.9 °C 1013.8 hPa NNE 5.1 km/h 7.4 km/h 50 % 0 mm
08:27 17.5 °C 6.9 °C 1013.8 hPa NNE 4.3 km/h 5.6 km/h 50 % 0 mm
08:32 17.5 °C 6.9 °C 1014.1 hPa NNE 3.5 km/h 5.6 km/h 50 % 0 mm
08:37 17.5 °C 6.9 °C 1014.1 hPa NNE 2.6 km/h 5.6 km/h 50 % 0 mm
08:42 17.6 °C 7 °C 1014.1 hPa NNE 1.6 km/h 3.7 km/h 50 % 0 mm
08:47 17.6 °C 7.3 °C 1014.1 hPa NNE 2.3 km/h 5.6 km/h 51 % 0 mm
08:52 17.7 °C 7.4 °C 1013.8 hPa NNE 3.4 km/h 5.6 km/h 51 % 0 mm
08:57 17.7 °C 7.4 °C 1013.8 hPa NNE 3.2 km/h 5.6 km/h 51 % 0 mm
09:02 17.8 °C 7.2 °C 1013.8 hPa NNE 2.6 km/h 5.6 km/h 50 % 0 mm
09:07 17.9 °C 7.6 °C 1013.8 hPa NNE 3.4 km/h 5.6 km/h 51 % 0 mm
09:12 17.9 °C 7.4 °C 1013.8 hPa NNE 4.7 km/h 8 km/h 50 % 0 mm
09:17 18 °C 7.4 °C 1013.8 hPa NNE 3.9 km/h 7.4 km/h 50 % 0 mm
09:22 18.2 °C 7.8 °C 1014.1 hPa NNE 5.6 km/h 7.4 km/h 51 % 0 mm
09:27 18.3 °C 8 °C 1013.8 hPa NNE 5.6 km/h 9.3 km/h 51 % 0 mm
09:32 18.7 °C 8.1 °C 1014.1 hPa NNE 7.2 km/h 9.3 km/h 50 % 0 mm
09:37 18.9 °C 8.3 °C 1014.1 hPa NNE 6.9 km/h 13 km/h 50 % 0 mm
09:42 19.4 °C 8.4 °C 1014.1 hPa NNE 7.1 km/h 9.7 km/h 49 % 0 mm
09:47 19.6 °C 8.9 °C 1014.1 hPa NNE 6.3 km/h 11.1 km/h 50 % 0 mm
09:52 19.7 °C 9 °C 1014.1 hPa NNE 9.5 km/h 11.1 km/h 50 % 0 mm
09:57 19.8 °C 8.8 °C 1014.1 hPa North 5.8 km/h 11.1 km/h 49 % 0 mm
10:02 19.9 °C 8.8 °C 1014.1 hPa North 4.2 km/h 18.5 km/h 49 % 0 mm
10:07 20.2 °C 8.8 °C 1014.1 hPa North 5.8 km/h 13 km/h 48 % 0 mm
10:12 20.3 °C 8.7 °C 1014.1 hPa NNW 8.7 km/h 18.5 km/h 47 % 0 mm
10:17 20.4 °C 8.7 °C 1014.1 hPa North 9.7 km/h 18.5 km/h 47 % 0 mm
10:22 20.5 °C 8.8 °C 1013.8 hPa North 7.7 km/h 13 km/h 47 % 0 mm
10:27 20.6 °C 8.8 °C 1013.8 hPa North 9 km/h 16.1 km/h 47 % 0 mm
10:32 20.9 °C 9.2 °C 1013.8 hPa NNW 10.9 km/h 13 km/h 47 % 0 mm
10:37 21.2 °C 9.4 °C 1013.8 hPa North 7.4 km/h 13 km/h 47 % 0 mm
10:42 21.3 °C 9.2 °C 1013.8 hPa NNW 5.8 km/h 14.8 km/h 46 % 0 mm
10:47 21.6 °C 9.8 °C 1013.8 hPa North 6.4 km/h 7.4 km/h 47 % 0 mm
10:52 21.9 °C 9.8 °C 1013.8 hPa NNW 5.6 km/h 13 km/h 46 % 0 mm
10:57 22.3 °C 10.1 °C 1013.4 hPa NNW 4.8 km/h 9.3 km/h 46 % 0 mm
11:02 22.4 °C 9.9 °C 1013.4 hPa North 8.2 km/h 9.3 km/h 45 % 0 mm
11:07 22.4 °C 10.6 °C 1013.8 hPa NNW 9 km/h 13 km/h 47 % 0 mm
11:12 22.2 °C 10.4 °C 1013.8 hPa NNW 5.5 km/h 14.8 km/h 47 % 0 mm
11:17 22.1 °C 10.3 °C 1013.8 hPa NNW 8.5 km/h 14.8 km/h 47 % 0 mm
11:22 22 °C 10.5 °C 1013.8 hPa North 6.8 km/h 14.5 km/h 48 % 0 mm
11:27 22.2 °C 10.3 °C 1013.8 hPa NW 10.6 km/h 17.7 km/h 47 % 0 mm
11:32 22.3 °C 10.2 °C 1014.1 hPa NW 15.6 km/h 18.5 km/h 46 % 0 mm
11:37 22.3 °C 10.4 °C 1013.8 hPa NNW 11.3 km/h 18.5 km/h 47 % 0 mm
11:42 22.5 °C 10.6 °C 1013.8 hPa NNW 15 km/h 22.2 km/h 47 % 0 mm
11:47 22.4 °C 10.5 °C 1013.8 hPa North 13.8 km/h 20.4 km/h 47 % 0 mm
11:52 22.3 °C 10.7 °C 1014.1 hPa North 7.7 km/h 9.7 km/h 48 % 0 mm
11:57 22.2 °C 10.3 °C 1014.1 hPa NNW 11.6 km/h 18.5 km/h 47 % 0 mm
12:02 22 °C 10.5 °C 1014.1 hPa NNW 16.9 km/h 20.4 km/h 48 % 0 mm
12:07 22 °C 10.5 °C 1013.8 hPa North 8.9 km/h 13 km/h 48 % 0 mm
12:12 21.9 °C 10.4 °C 1014.1 hPa North 13 km/h 16.7 km/h 48 % 0 mm
12:17 21.9 °C 10.4 °C 1014.1 hPa NW 8.5 km/h 13 km/h 48 % 0 mm
12:23 22.2 °C 10.4 °C 1013.8 hPa NNW 8.2 km/h 18.5 km/h 47 % 0 mm
12:28 22.4 °C 10.6 °C 1013.8 hPa NNW 11.9 km/h 14.8 km/h 47 % 0 mm
12:33 22.7 °C 10.8 °C 1013.8 hPa NNW 6 km/h 9.3 km/h 47 % 0 mm
12:38 22.7 °C 10.5 °C 1013.8 hPa NNW 11.1 km/h 14.8 km/h 46 % 0 mm
12:43 22.7 °C 10.4 °C 1013.8 hPa North 11.9 km/h 13 km/h 46 % 0 mm
12:48 22.5 °C 9.9 °C 1013.8 hPa NNW 9.7 km/h 13 km/h 45 % 0 mm
12:53 22.5 °C 9.9 °C 1013.8 hPa North 9.2 km/h 13 km/h 45 % 0 mm
12:58 22.5 °C 9.9 °C 1013.8 hPa NNW 8.7 km/h 13 km/h 45 % 0 mm
13:03 22.5 °C 10.3 °C 1013.8 hPa NW 6.6 km/h 11.1 km/h 46 % 0 mm
13:08 22.6 °C 10.3 °C 1013.8 hPa WNW 11.7 km/h 16.7 km/h 46 % 0 mm
13:13 22.3 °C 10.1 °C 1013.8 hPa North 15.1 km/h 20.4 km/h 46 % 0 mm
13:18 22.1 °C 10.9 °C 1013.8 hPa North 13.7 km/h 18.5 km/h 49 % 0 mm
13:23 21.9 °C 10.7 °C 1013.8 hPa North 14.8 km/h 18.5 km/h 49 % 0 mm
13:28 21.7 °C 10.6 °C 1013.8 hPa West 9.5 km/h 18.5 km/h 49 % 0 mm
13:33 21.6 °C 10.4 °C 1013.8 hPa WNW 12.7 km/h 18.5 km/h 49 % 0 mm
13:38 21.6 °C 10.7 °C 1013.8 hPa West 11.6 km/h 14.8 km/h 50 % 0 mm
13:43 21.4 °C 11.4 °C 1013.8 hPa West 10.9 km/h 11.3 km/h 53 % 0 mm
13:48 21.3 °C 11.1 °C 1013.4 hPa WNW 6.1 km/h 9.7 km/h 52 % 0 mm
13:53 21.4 °C 11.2 °C 1013.1 hPa WNW 5.6 km/h 8 km/h 52 % 0 mm
13:58 21.6 °C 11.1 °C 1013.1 hPa Calm     51 % 0 mm
14:03 22 °C 11.7 °C 1013.1 hPa WNW 1.3 km/h 3.7 km/h 52 % 0 mm
14:08 22.3 °C 11.4 °C 1013.1 hPa WNW 3.4 km/h 5.6 km/h 50 % 0 mm
14:13 22.3 °C 11.3 °C 1012.8 hPa WNW 5.5 km/h 7.4 km/h 50 % 0 mm
14:18 22.3 °C 11.7 °C 1012.8 hPa North 2.1 km/h 6.4 km/h 51 % 0 mm
14:23 22.3 °C 11.4 °C 1012.8 hPa WNW 5 km/h 9.3 km/h 50 % 0 mm
14:28 22.6 °C 11.6 °C 1012.8 hPa WNW 4.2 km/h 7.4 km/h 50 % 0 mm
14:33 22.5 °C 11.6 °C 1012.8 hPa NE 5.1 km/h 9.7 km/h 50 % 0 mm
14:38 22.4 °C 11.8 °C 1012.8 hPa NNE 7.9 km/h 13 km/h 51 % 0 mm
14:43 22.2 °C 11.9 °C 1012.8 hPa NNE 9.3 km/h 13 km/h 52 % 0 mm
14:48 22.2 °C 11.8 °C 1012.8 hPa NE 6.1 km/h 11.1 km/h 52 % 0 mm
14:53 22.2 °C 11.8 °C 1012.8 hPa NNE 9.7 km/h 16.7 km/h 52 % 0 mm
14:58 22.2 °C 11.6 °C 1012.8 hPa NNE 9.7 km/h 16.7 km/h 51 % 0 mm
15:03 22.1 °C 11.8 °C 1012.8 hPa NNE 9.7 km/h 13 km/h 52 % 0 mm
15:08 22 °C 11.7 °C 1012.8 hPa NNE 9.8 km/h 13 km/h 52 % 0 mm
15:13 21.9 °C 11.9 °C 1012.8 hPa NNE 5.8 km/h 9.3 km/h 53 % 0 mm
15:18 21.9 °C 11.9 °C 1012.8 hPa NNE 4.8 km/h 9.3 km/h 53 % 0 mm
15:23 22.1 °C 12.1 °C 1012.8 hPa NNE 6 km/h 9.3 km/h 53 % 0 mm
15:28 22.2 °C 11.9 °C 1012.8 hPa NNE 5.3 km/h 9.3 km/h 52 % 0 mm
15:33 22.3 °C 11.9 °C 1013.1 hPa NNE 3.7 km/h 5.6 km/h 52 % 0 mm
15:38 22.4 °C 12.1 °C 1013.1 hPa NNE 4.3 km/h 7.4 km/h 52 % 0 mm
15:43 22.4 °C 12.1 °C 1013.1 hPa NNE 6.1 km/h 7.4 km/h 52 % 0 mm
15:48 22.6 °C 12.2 °C 1013.1 hPa NNE 4.3 km/h 5.6 km/h 52 % 0 mm
15:53 22.6 °C 11.9 °C 1013.1 hPa NNE 3.9 km/h 9.3 km/h 51 % 0 mm
15:58 22.7 °C 12 °C 1013.1 hPa NNW 10.9 km/h 18.5 km/h 51 % 0 mm
16:03 22.6 °C 11.9 °C 1013.1 hPa NNW 3.9 km/h 9.3 km/h 51 % 0 mm
16:08 22.6 °C 12.2 °C 1013.1 hPa North 4.3 km/h 5.6 km/h 52 % 0 mm
16:13 22.9 °C 12.3 °C 1013.1 hPa North 6.9 km/h 8 km/h 51 % 0 mm
16:18 23 °C 12 °C 1013.1 hPa North 8.4 km/h 14.8 km/h 50 % 0 mm
16:23 22.7 °C 12 °C 1013.1 hPa NNW 6.9 km/h 11.3 km/h 51 % 0 mm
16:28 22.4 °C 12.1 °C 1013.1 hPa North 6.3 km/h 9.3 km/h 52 % 0 mm
16:33 22.2 °C 12.2 °C 1013.1 hPa NNW 3.9 km/h 6.4 km/h 53 % 0 mm
16:38 22.3 °C 12.3 °C 1013.1 hPa NNW 5.6 km/h 7.4 km/h 53 % 0 mm
16:43 22.6 °C 12.2 °C 1013.1 hPa North 1.6 km/h 4.8 km/h 52 % 0 mm
16:48 22.8 °C 12.2 °C 1013.4 hPa North 3.7 km/h 7.4 km/h 51 % 0 mm
16:53 22.7 °C 12.3 °C 1013.4 hPa NNW 6.1 km/h 7.4 km/h 52 % 0 mm
16:58 22.7 °C 12.3 °C 1013.4 hPa NNW 4.8 km/h 5.6 km/h 52 % 0 mm
17:03 22.8 °C 12.4 °C 1013.4 hPa NNW 7.7 km/h 13 km/h 52 % 0 mm
17:08 22.8 °C 12.4 °C 1013.4 hPa NNW 9.8 km/h 12.9 km/h 52 % 0 mm
17:13 22.7 °C 12.3 °C 1013.1 hPa NNW 3.9 km/h 8 km/h 52 % 0 mm
17:18 22.6 °C 12.3 °C 1013.4 hPa NNW 2.7 km/h 5.6 km/h 52 % 0 mm
17:23 22.4 °C 12.1 °C 1013.4 hPa North 5.3 km/h 6.4 km/h 52 % 0 mm
17:28 22.3 °C 11.9 °C 1013.4 hPa NNW 4.2 km/h 7.4 km/h 52 % 0 mm
17:33 22.1 °C 12.1 °C 1013.4 hPa North 3.1 km/h 5.6 km/h 53 % 0 mm
17:38 21.9 °C 11.9 °C 1013.4 hPa North 2.3 km/h 3.7 km/h 53 % 0 mm
17:43 21.7 °C 12 °C 1013.4 hPa NNW 0.6 km/h 3.7 km/h 54 % 0 mm
17:48 21.4 °C 12 °C 1013.8 hPa NNW 3.4 km/h 5.6 km/h 55 % 0 mm
17:53 21.2 °C 12.9 °C 1013.8 hPa North 6.3 km/h 8 km/h 59 % 0 mm
17:58 21 °C 13.4 °C 1013.8 hPa NNW 2.7 km/h 3.7 km/h 62 % 0 mm
18:03 20.7 °C 13.7 °C 1013.8 hPa North 2.1 km/h 5.6 km/h 64 % 0 mm
18:08 20.4 °C 13.7 °C 1014.1 hPa North 4.5 km/h 6.4 km/h 65 % 0 mm
18:13 20.2 °C 13.9 °C 1014.1 hPa NNW 4.7 km/h 5.6 km/h 67 % 0 mm
18:18 20.1 °C 13.7 °C 1014.1 hPa NNW 3.7 km/h 5.6 km/h 67 % 0 mm
18:21 20 °C 13.9 °C 1014.1 hPa Calm     68 % 0 mm
18:26 19.8 °C 13.7 °C 1014.1 hPa NNW 1.1 km/h 3.7 km/h 68 % 0 mm
18:31 19.7 °C 13.8 °C 1014.1 hPa NNW 2.6 km/h 5.6 km/h 69 % 0 mm
18:36 19.5 °C 13.9 °C 1014.1 hPa NNW 3.9 km/h 5.6 km/h 70 % 0 mm
18:41 19.4 °C 13.8 °C 1014.4 hPa NNW 4 km/h 7.4 km/h 70 % 0 mm
18:46 19.3 °C 14.2 °C 1014.4 hPa WSW 8.9 km/h 13 km/h 72 % 0 mm
18:51 19.1 °C 14.2 °C 1014.4 hPa North 8 km/h 11.1 km/h 73 % 0 mm
18:56 18.8 °C 14.3 °C 1014.8 hPa WSW 6.8 km/h 9.7 km/h 75 % 0 mm
19:01 18.7 °C 14.6 °C 1014.8 hPa SW 5.1 km/h 9.3 km/h 77 % 0 mm
19:06 18.6 °C 14.4 °C 1014.8 hPa SW 0.8 km/h 3.7 km/h 77 % 0 mm
19:11 18.5 °C 14.6 °C 1014.8 hPa WSW 0.2 km/h 1.9 km/h 78 % 0 mm
19:16 18.4 °C 14.6 °C 1015.1 hPa SW 2.1 km/h 5.6 km/h 78 % 0 mm
19:21 18.4 °C 14.7 °C 1015.1 hPa SW 4.3 km/h 5.6 km/h 79 % 0 mm
19:26 18.3 °C 14.6 °C 1015.1 hPa SW 4 km/h 5.6 km/h 79 % 0 mm
19:31 18.2 °C 14.4 °C 1015.1 hPa WSW 2.4 km/h 5.6 km/h 79 % 0 mm
19:36 18.1 °C 14.3 °C 1015.1 hPa SW 4.2 km/h 5.6 km/h 79 % 0 mm
19:41 17.9 °C 14.4 °C 1015.5 hPa SW 3.5 km/h 5.6 km/h 80 % 0 mm
19:46 17.8 °C 14.3 °C 1015.5 hPa SW 3.1 km/h 5.6 km/h 80 % 0 mm
19:51 17.7 °C 14.2 °C 1015.5 hPa SW 4.3 km/h 7.4 km/h 80 % 0 mm
19:56 17.6 °C 14.1 °C 1015.5 hPa WSW 2.7 km/h 5.6 km/h 80 % 0 mm
20:01 17.4 °C 14.2 °C 1015.5 hPa SW 4.7 km/h 5.6 km/h 81 % 0 mm
20:06 17.4 °C 14.2 °C 1015.5 hPa SW 3.9 km/h 7.4 km/h 81 % 0 mm
20:11 17.4 °C 14.3 °C 1015.5 hPa North 3.5 km/h 5.6 km/h 82 % 0 mm
20:16 17.3 °C 14.2 °C 1015.5 hPa SW 2.9 km/h 5.6 km/h 82 % 0 mm
20:21 17.2 °C 14.1 °C 1015.5 hPa SW 5 km/h 7.4 km/h 82 % 0 mm
20:26 17.2 °C 14.1 °C 1015.5 hPa SW 3.9 km/h 7.4 km/h 82 % 0 mm
20:31 17.1 °C 13.9 °C 1015.5 hPa SW 5.5 km/h 6.4 km/h 82 % 0 mm
20:36 16.9 °C 14.1 °C 1015.5 hPa SW 1.4 km/h 5.6 km/h 83 % 0 mm
20:41 16.8 °C 13.9 °C 1015.5 hPa SW 2.3 km/h 5.6 km/h 83 % 0 mm
20:46 16.7 °C 13.8 °C 1015.5 hPa SW 0.6 km/h 1.9 km/h 83 % 0 mm
20:51 16.6 °C 13.7 °C 1015.5 hPa SW 2.4 km/h 5.6 km/h 83 % 0 mm
20:56 16.5 °C 13.6 °C 1015.8 hPa North 1.6 km/h 3.7 km/h 83 % 0 mm
21:01 16.4 °C 13.7 °C 1015.8 hPa Calm     84 % 0 mm
21:06 16.4 °C 13.7 °C 1015.8 hPa SW 1.8 km/h 3.7 km/h 84 % 0 mm
21:11 16.3 °C 13.6 °C 1015.8 hPa SW 5 km/h 9.3 km/h 84 % 0 mm
21:16 16 °C 13.5 °C 1015.8 hPa SW 5.1 km/h 9.3 km/h 85 % 0 mm
21:21 15.7 °C 13.2 °C 1015.8 hPa North 5.1 km/h 7.4 km/h 85 % 0 mm
21:26 15.6 °C 13.3 °C 1015.8 hPa SW 5.8 km/h 9.3 km/h 86 % 0 mm
21:31 15.5 °C 13.3 °C 1015.8 hPa SW 6 km/h 7.4 km/h 87 % 0 mm
21:36 15.4 °C 13.4 °C 1015.8 hPa SW 4.3 km/h 11.1 km/h 88 % 0 mm
21:41 15.4 °C 13.7 °C 1016.1 hPa SW 5.6 km/h 5.6 km/h 89 % 0 mm
21:47 15.4 °C 13.6 °C 1016.1 hPa SW 3.7 km/h 8 km/h 89 % 0 mm
21:51 15.3 °C 13.6 °C 1016.1 hPa SW 4.3 km/h 9.3 km/h 89 % 0 mm
21:56 15.2 °C 13.4 °C 1016.1 hPa North 5.8 km/h 9.3 km/h 89 % 0 mm
22:01 15.2 °C 13.4 °C 1016.1 hPa SW 4.5 km/h 5.6 km/h 89 % 0 mm
22:06 15.1 °C 13.5 °C 1016.1 hPa North 3.7 km/h 7.4 km/h 90 % 0 mm
22:11 15.1 °C 13.4 °C 1016.1 hPa SW 1.1 km/h 5.6 km/h 90 % 0 mm
22:16 15.1 °C 13.4 °C 1016.1 hPa SW 3.5 km/h 5.6 km/h 90 % 0 mm
22:21 15 °C 13.4 °C 1016.1 hPa SW 4.8 km/h 7.4 km/h 90 % 0 mm
22:26 15 °C 13.4 °C 1016.1 hPa SW 5.5 km/h 7.4 km/h 90 % 0 mm
22:31 14.9 °C 13.3 °C 1016.1 hPa SW 5.1 km/h 9.3 km/h 90 % 0 mm
22:36 14.9 °C 13.3 °C 1016.1 hPa SW 2.6 km/h 6.4 km/h 90 % 0 mm
22:41 14.9 °C 13.3 °C 1016.1 hPa SW 5.5 km/h 6.4 km/h 90 % 0 mm
22:46 14.8 °C 13.2 °C 1016.1 hPa SW 4 km/h 5.6 km/h 90 % 0 mm
22:51 14.7 °C 13.1 °C 1016.1 hPa SW 4.8 km/h 5.6 km/h 90 % 0 mm
22:56 14.7 °C 13.1 °C 1016.1 hPa SW 1.4 km/h 3.7 km/h 90 % 0 mm
23:01 14.6 °C 12.9 °C 1016.1 hPa SW 2.4 km/h 3.7 km/h 90 % 0 mm
23:06 14.5 °C 12.9 °C 1016.1 hPa North 0.2 km/h 1.9 km/h 90 % 0 mm
23:11 14.5 °C 12.9 °C 1015.8 hPa SW 1.1 km/h 1.9 km/h 90 % 0 mm
23:16 14.4 °C 12.8 °C 1015.8 hPa Calm   3.7 km/h 90 % 0 mm
23:21 14.3 °C 12.7 °C 1015.8 hPa SW 0.3 km/h   90 % 0 mm
23:26 14.2 °C 12.6 °C 1015.8 hPa Calm   1.9 km/h 90 % 0 mm
23:34 14 °C 12.4 °C 1015.8 hPa SW 3.9 km/h 5.6 km/h 90 % 0 mm
23:39 13.9 °C 12.3 °C 1015.8 hPa North 2.7 km/h 5.6 km/h 90 % 0 mm
23:44 13.8 °C 12.2 °C 1015.8 hPa SW 3.9 km/h 5.6 km/h 90 % 0 mm
23:49 13.7 °C 12.2 °C 1015.8 hPa SW 2.9 km/h 5.6 km/h 91 % 0 mm
23:54 13.6 °C 12.1 °C 1015.5 hPa SW 0.6 km/h 3.7 km/h 91 % 0 mm
23:58 13.4 °C 12 °C 1015.5 hPa North 3.1 km/h 5.6 km/h 91 % 0 mm
Ararat Weather
Compliments of Weather Underground - 2.25 mb
Click here to send mail.


ABOUT

Live weather data from Ararat, Victoria, Australia, 3377
Data uploaded from Cumulus every 5 minutes to Weather Underground.
This site then downloads the raw data for formatting and display.
Metric and imperial data can be displayed. Graphs and historical data available.
Includes Sun and Moon times and rain image live from BOM.

Check out Ararat Weather on Facebook, Twitter and Google +

Help support ongoing costs by checking out the ads





Follow @AraratWeather